sensor_id;sensor_type;location;lat;lon;timestamp;temperature;humidity
13186;DHT22;6658;53.080;7.428;2022-08-27T00:01:06;17.90;99.90
13186;DHT22;6658;53.080;7.428;2022-08-27T00:03:33;17.80;99.90
13186;DHT22;6658;53.080;7.428;2022-08-27T00:05:59;17.80;99.90
13186;DHT22;6658;53.080;7.428;2022-08-27T00:08:25;17.80;99.90
13186;DHT22;6658;53.080;7.428;2022-08-27T00:10:51;17.80;99.90
13186;DHT22;6658;53.080;7.428;2022-08-27T00:13:17;17.70;99.90
13186;DHT22;6658;53.080;7.428;2022-08-27T00:15:43;17.70;99.90
13186;DHT22;6658;53.080;7.428;2022-08-27T00:18:08;17.60;99.90
13186;DHT22;6658;53.080;7.428;2022-08-27T00:20:34;17.60;99.90
13186;DHT22;6658;53.080;7.428;2022-08-27T00:23:00;17.60;99.90
13186;DHT22;6658;53.080;7.428;2022-08-27T00:25:26;17.50;99.90
13186;DHT22;6658;53.080;7.428;2022-08-27T00:27:52;17.40;99.90
13186;DHT22;6658;53.080;7.428;2022-08-27T00:30:20;17.40;99.90
13186;DHT22;6658;53.080;7.428;2022-08-27T00:32:47;17.30;99.90
13186;DHT22;6658;53.080;7.428;2022-08-27T00:35:13;17.30;99.90
13186;DHT22;6658;53.080;7.428;2022-08-27T00:37:41;17.20;99.90
13186;DHT22;6658;53.080;7.428;2022-08-27T00:40:11;17.20;99.90
13186;DHT22;6658;53.080;7.428;2022-08-27T00:42:37;17.20;99.90
13186;DHT22;6658;53.080;7.428;2022-08-27T00:45:04;17.10;99.90
13186;DHT22;6658;53.080;7.428;2022-08-27T00:47:42;17.10;99.90
13186;DHT22;6658;53.080;7.428;2022-08-27T00:50:11;17.00;99.90
13186;DHT22;6658;53.080;7.428;2022-08-27T00:52:47;17.00;99.90
13186;DHT22;6658;53.080;7.428;2022-08-27T00:55:20;16.90;99.90
13186;DHT22;6658;53.080;7.428;2022-08-27T00:57:51;16.90;99.90
13186;DHT22;6658;53.080;7.428;2022-08-27T01:00:18;16.90;99.90
13186;DHT22;6658;53.080;7.428;2022-08-27T01:02:45;16.90;99.90
13186;DHT22;6658;53.080;7.428;2022-08-27T01:05:15;16.90;99.90
13186;DHT22;6658;53.080;7.428;2022-08-27T01:07:45;16.80;99.90
13186;DHT22;6658;53.080;7.428;2022-08-27T01:10:14;16.80;99.90
13186;DHT22;6658;53.080;7.428;2022-08-27T01:12:41;16.70;99.90
13186;DHT22;6658;53.080;7.428;2022-08-27T01:15:10;16.70;99.90
13186;DHT22;6658;53.080;7.428;2022-08-27T01:17:38;16.70;99.90
13186;DHT22;6658;53.080;7.428;2022-08-27T01:20:08;16.70;99.90
13186;DHT22;6658;53.080;7.428;2022-08-27T01:25:14;16.60;99.90
13186;DHT22;6658;53.080;7.428;2022-08-27T01:27:41;16.60;99.90
13186;DHT22;6658;53.080;7.428;2022-08-27T01:30:10;16.50;99.90
13186;DHT22;6658;53.080;7.428;2022-08-27T01:32:37;16.50;99.90
13186;DHT22;6658;53.080;7.428;2022-08-27T01:35:07;16.50;99.90
13186;DHT22;6658;53.080;7.428;2022-08-27T01:37:34;16.50;99.90
13186;DHT22;6658;53.080;7.428;2022-08-27T01:40:01;16.50;99.90
13186;DHT22;6658;53.080;7.428;2022-08-27T01:42:33;16.50;99.90
13186;DHT22;6658;53.080;7.428;2022-08-27T01:45:05;16.50;99.90
13186;DHT22;6658;53.080;7.428;2022-08-27T01:47:33;16.60;99.90
13186;DHT22;6658;53.080;7.428;2022-08-27T01:49:59;16.60;99.90
13186;DHT22;6658;53.080;7.428;2022-08-27T01:52:27;16.70;99.90
13186;DHT22;6658;53.080;7.428;2022-08-27T01:54:54;16.70;99.90
13186;DHT22;6658;53.080;7.428;2022-08-27T01:57:20;16.70;99.90
13186;DHT22;6658;53.080;7.428;2022-08-27T01:59:46;16.80;99.90
13186;DHT22;6658;53.080;7.428;2022-08-27T02:02:14;16.80;99.90
13186;DHT22;6658;53.080;7.428;2022-08-27T02:04:41;16.90;99.90
13186;DHT22;6658;53.080;7.428;2022-08-27T02:07:07;16.90;99.90
13186;DHT22;6658;53.080;7.428;2022-08-27T02:09:33;17.00;99.90
13186;DHT22;6658;53.080;7.428;2022-08-27T02:12:00;17.00;99.90
13186;DHT22;6658;53.080;7.428;2022-08-27T02:14:26;17.10;99.90
13186;DHT22;6658;53.080;7.428;2022-08-27T02:16:53;17.10;99.90
13186;DHT22;6658;53.080;7.428;2022-08-27T02:19:19;17.10;99.90
13186;DHT22;6658;53.080;7.428;2022-08-27T02:21:46;17.20;99.90
13186;DHT22;6658;53.080;7.428;2022-08-27T02:24:12;17.20;99.90
13186;DHT22;6658;53.080;7.428;2022-08-27T02:26:38;17.20;99.90
13186;DHT22;6658;53.080;7.428;2022-08-27T02:29:05;17.20;99.90
13186;DHT22;6658;53.080;7.428;2022-08-27T02:31:30;17.30;99.90
13186;DHT22;6658;53.080;7.428;2022-08-27T02:33:56;17.30;99.90
13186;DHT22;6658;53.080;7.428;2022-08-27T02:36:23;17.30;99.90
13186;DHT22;6658;53.080;7.428;2022-08-27T02:38:48;17.40;99.90
13186;DHT22;6658;53.080;7.428;2022-08-27T02:41:14;17.40;99.90
13186;DHT22;6658;53.080;7.428;2022-08-27T02:43:41;17.40;99.90
13186;DHT22;6658;53.080;7.428;2022-08-27T02:46:08;17.40;99.90
13186;DHT22;6658;53.080;7.428;2022-08-27T02:48:36;17.40;99.90
13186;DHT22;6658;53.080;7.428;2022-08-27T02:51:02;17.50;99.90
13186;DHT22;6658;53.080;7.428;2022-08-27T02:53:30;17.50;99.90
13186;DHT22;6658;53.080;7.428;2022-08-27T02:55:56;17.50;99.90
13186;DHT22;6658;53.080;7.428;2022-08-27T02:58:22;17.50;99.90
13186;DHT22;6658;53.080;7.428;2022-08-27T03:00:47;17.60;99.90
13186;DHT22;6658;53.080;7.428;2022-08-27T03:03:13;17.60;99.90
13186;DHT22;6658;53.080;7.428;2022-08-27T03:05:39;17.60;99.90
13186;DHT22;6658;53.080;7.428;2022-08-27T03:08:05;17.50;99.90
13186;DHT22;6658;53.080;7.428;2022-08-27T03:10:31;17.60;99.90
13186;DHT22;6658;53.080;7.428;2022-08-27T03:12:57;17.50;99.90
13186;DHT22;6658;53.080;7.428;2022-08-27T03:15:23;17.50;99.90
13186;DHT22;6658;53.080;7.428;2022-08-27T03:17:49;17.50;99.90
13186;DHT22;6658;53.080;7.428;2022-08-27T03:20:37;17.40;99.90
13186;DHT22;6658;53.080;7.428;2022-08-27T03:23:05;17.30;99.90
13186;DHT22;6658;53.080;7.428;2022-08-27T03:25:31;17.20;99.90
13186;DHT22;6658;53.080;7.428;2022-08-27T03:27:56;17.20;99.90
13186;DHT22;6658;53.080;7.428;2022-08-27T03:30:23;17.10;99.90
13186;DHT22;6658;53.080;7.428;2022-08-27T03:32:49;17.10;99.90
13186;DHT22;6658;53.080;7.428;2022-08-27T03:35:16;17.00;99.90
13186;DHT22;6658;53.080;7.428;2022-08-27T03:37:42;17.00;99.90
13186;DHT22;6658;53.080;7.428;2022-08-27T03:40:08;17.00;99.90
13186;DHT22;6658;53.080;7.428;2022-08-27T03:42:35;17.00;99.90
13186;DHT22;6658;53.080;7.428;2022-08-27T03:45:01;17.00;99.90
13186;DHT22;6658;53.080;7.428;2022-08-27T03:47:26;17.00;99.90
13186;DHT22;6658;53.080;7.428;2022-08-27T03:49:52;17.00;99.90
13186;DHT22;6658;53.080;7.428;2022-08-27T03:52:18;17.00;99.90
13186;DHT22;6658;53.080;7.428;2022-08-27T03:54:44;16.90;99.90
13186;DHT22;6658;53.080;7.428;2022-08-27T03:57:10;16.90;99.90
13186;DHT22;6658;53.080;7.428;2022-08-27T03:59:36;16.90;99.90
13186;DHT22;6658;53.080;7.428;2022-08-27T04:02:02;16.90;99.90
13186;DHT22;6658;53.080;7.428;2022-08-27T04:04:28;16.90;99.90
13186;DHT22;6658;53.080;7.428;2022-08-27T04:06:55;16.90;99.90
13186;DHT22;6658;53.080;7.428;2022-08-27T04:09:22;16.80;99.90
13186;DHT22;6658;53.080;7.428;2022-08-27T04:11:48;16.80;99.90
13186;DHT22;6658;53.080;7.428;2022-08-27T04:14:14;16.80;99.90
13186;DHT22;6658;53.080;7.428;2022-08-27T04:16:39;16.70;99.90
13186;DHT22;6658;53.080;7.428;2022-08-27T04:19:06;16.70;99.90
13186;DHT22;6658;53.080;7.428;2022-08-27T04:21:33;16.70;99.90
13186;DHT22;6658;53.080;7.428;2022-08-27T04:24:00;16.70;99.90
13186;DHT22;6658;53.080;7.428;2022-08-27T04:26:27;16.60;99.90
13186;DHT22;6658;53.080;7.428;2022-08-27T04:28:53;16.60;99.90
13186;DHT22;6658;53.080;7.428;2022-08-27T04:31:20;16.60;99.90
13186;DHT22;6658;53.080;7.428;2022-08-27T04:33:46;16.60;99.90
13186;DHT22;6658;53.080;7.428;2022-08-27T04:36:12;16.60;99.90
13186;DHT22;6658;53.080;7.428;2022-08-27T04:38:38;16.60;99.90
13186;DHT22;6658;53.080;7.428;2022-08-27T04:41:06;16.60;99.90
13186;DHT22;6658;53.080;7.428;2022-08-27T04:43:55;16.60;99.90
13186;DHT22;6658;53.080;7.428;2022-08-27T04:46:34;16.60;99.90
13186;DHT22;6658;53.080;7.428;2022-08-27T04:49:02;16.50;99.90
13186;DHT22;6658;53.080;7.428;2022-08-27T04:51:28;16.50;99.90
13186;DHT22;6658;53.080;7.428;2022-08-27T04:53:55;16.40;99.90
13186;DHT22;6658;53.080;7.428;2022-08-27T04:56:22;16.40;99.90
13186;DHT22;6658;53.080;7.428;2022-08-27T04:58:50;16.30;99.90
13186;DHT22;6658;53.080;7.428;2022-08-27T05:01:25;16.30;99.90
13186;DHT22;6658;53.080;7.428;2022-08-27T05:03:51;16.30;99.90
13186;DHT22;6658;53.080;7.428;2022-08-27T05:06:17;16.40;99.90
13186;DHT22;6658;53.080;7.428;2022-08-27T05:08:44;16.40;99.90
13186;DHT22;6658;53.080;7.428;2022-08-27T05:11:12;16.50;99.90
13186;DHT22;6658;53.080;7.428;2022-08-27T05:13:43;16.50;99.90
13186;DHT22;6658;53.080;7.428;2022-08-27T05:16:11;16.60;99.90
13186;DHT22;6658;53.080;7.428;2022-08-27T05:18:38;16.60;99.90
13186;DHT22;6658;53.080;7.428;2022-08-27T05:21:05;16.70;99.90
13186;DHT22;6658;53.080;7.428;2022-08-27T05:23:30;16.70;99.90
13186;DHT22;6658;53.080;7.428;2022-08-27T05:25:57;16.80;99.90
13186;DHT22;6658;53.080;7.428;2022-08-27T05:28:25;16.90;99.90
13186;DHT22;6658;53.080;7.428;2022-08-27T05:30:53;16.90;99.90
13186;DHT22;6658;53.080;7.428;2022-08-27T05:33:22;17.00;99.90
13186;DHT22;6658;53.080;7.428;2022-08-27T05:35:51;17.20;99.90
13186;DHT22;6658;53.080;7.428;2022-08-27T05:38:18;17.30;99.90
13186;DHT22;6658;53.080;7.428;2022-08-27T05:40:44;17.50;99.90
13186;DHT22;6658;53.080;7.428;2022-08-27T05:43:13;17.60;99.90
13186;DHT22;6658;53.080;7.428;2022-08-27T05:45:51;17.60;99.90
13186;DHT22;6658;53.080;7.428;2022-08-27T05:48:17;17.70;99.90
13186;DHT22;6658;53.080;7.428;2022-08-27T05:50:44;17.70;99.90
13186;DHT22;6658;53.080;7.428;2022-08-27T05:53:11;17.60;99.90
13186;DHT22;6658;53.080;7.428;2022-08-27T05:55:42;17.60;99.90
13186;DHT22;6658;53.080;7.428;2022-08-27T05:58:12;17.60;99.90
13186;DHT22;6658;53.080;7.428;2022-08-27T06:00:57;17.60;99.90
13186;DHT22;6658;53.080;7.428;2022-08-27T06:03:29;17.60;99.90
13186;DHT22;6658;53.080;7.428;2022-08-27T06:06:00;17.60;99.90
13186;DHT22;6658;53.080;7.428;2022-08-27T06:08:26;17.60;99.90
13186;DHT22;6658;53.080;7.428;2022-08-27T06:10:51;17.60;99.90
13186;DHT22;6658;53.080;7.428;2022-08-27T06:13:17;17.60;99.90
13186;DHT22;6658;53.080;7.428;2022-08-27T06:15:43;17.60;99.90
13186;DHT22;6658;53.080;7.428;2022-08-27T06:18:08;17.60;99.90
13186;DHT22;6658;53.080;7.428;2022-08-27T06:20:34;17.70;99.90
13186;DHT22;6658;53.080;7.428;2022-08-27T06:23:00;17.70;99.90
13186;DHT22;6658;53.080;7.428;2022-08-27T06:25:25;17.70;99.90
13186;DHT22;6658;53.080;7.428;2022-08-27T06:27:51;17.70;99.90
13186;DHT22;6658;53.080;7.428;2022-08-27T06:30:17;17.70;99.90
13186;DHT22;6658;53.080;7.428;2022-08-27T06:32:42;17.60;99.90
13186;DHT22;6658;53.080;7.428;2022-08-27T06:35:08;17.60;99.90
13186;DHT22;6658;53.080;7.428;2022-08-27T06:37:34;17.60;99.90
13186;DHT22;6658;53.080;7.428;2022-08-27T06:40:00;17.60;99.90
13186;DHT22;6658;53.080;7.428;2022-08-27T06:42:26;17.70;99.90
13186;DHT22;6658;53.080;7.428;2022-08-27T06:44:52;17.70;99.90
13186;DHT22;6658;53.080;7.428;2022-08-27T06:47:18;17.70;99.90
13186;DHT22;6658;53.080;7.428;2022-08-27T06:49:44;17.70;99.90
13186;DHT22;6658;53.080;7.428;2022-08-27T06:52:10;17.70;99.90
13186;DHT22;6658;53.080;7.428;2022-08-27T06:54:35;17.60;99.90
13186;DHT22;6658;53.080;7.428;2022-08-27T06:57:01;17.60;99.90
13186;DHT22;6658;53.080;7.428;2022-08-27T06:59:26;17.60;99.90
13186;DHT22;6658;53.080;7.428;2022-08-27T07:01:52;17.60;99.90
13186;DHT22;6658;53.080;7.428;2022-08-27T07:04:22;17.60;99.90
13186;DHT22;6658;53.080;7.428;2022-08-27T07:06:49;17.80;99.90
13186;DHT22;6658;53.080;7.428;2022-08-27T07:09:15;17.90;99.90
13186;DHT22;6658;53.080;7.428;2022-08-27T07:11:41;18.00;99.90
13186;DHT22;6658;53.080;7.428;2022-08-27T07:14:08;18.30;99.90
13186;DHT22;6658;53.080;7.428;2022-08-27T07:16:34;18.40;99.90
13186;DHT22;6658;53.080;7.428;2022-08-27T07:19:01;18.60;99.90
13186;DHT22;6658;53.080;7.428;2022-08-27T07:21:27;18.80;99.90
13186;DHT22;6658;53.080;7.428;2022-08-27T07:23:54;19.00;99.90
13186;DHT22;6658;53.080;7.428;2022-08-27T07:26:23;19.20;99.90
13186;DHT22;6658;53.080;7.428;2022-08-27T07:28:49;19.20;99.90
13186;DHT22;6658;53.080;7.428;2022-08-27T07:31:20;19.30;99.90
13186;DHT22;6658;53.080;7.428;2022-08-27T07:33:46;19.40;99.90
13186;DHT22;6658;53.080;7.428;2022-08-27T07:36:12;19.60;99.90
13186;DHT22;6658;53.080;7.428;2022-08-27T07:38:38;19.80;99.90
13186;DHT22;6658;53.080;7.428;2022-08-27T07:41:08;20.20;99.90
13186;DHT22;6658;53.080;7.428;2022-08-27T07:43:34;20.30;99.90
13186;DHT22;6658;53.080;7.428;2022-08-27T07:46:19;20.40;99.90
13186;DHT22;6658;53.080;7.428;2022-08-27T07:48:47;20.40;99.90
13186;DHT22;6658;53.080;7.428;2022-08-27T07:51:15;20.40;99.90
13186;DHT22;6658;53.080;7.428;2022-08-27T07:53:42;20.20;99.90
13186;DHT22;6658;53.080;7.428;2022-08-27T07:56:08;20.00;99.90
13186;DHT22;6658;53.080;7.428;2022-08-27T07:58:34;19.90;99.90
13186;DHT22;6658;53.080;7.428;2022-08-27T08:01:00;20.20;99.90
13186;DHT22;6658;53.080;7.428;2022-08-27T08:03:26;20.60;99.90
13186;DHT22;6658;53.080;7.428;2022-08-27T08:05:52;20.90;99.90
13186;DHT22;6658;53.080;7.428;2022-08-27T08:08:22;21.20;99.90
13186;DHT22;6658;53.080;7.428;2022-08-27T08:10:48;21.10;99.90
13186;DHT22;6658;53.080;7.428;2022-08-27T08:13:15;21.00;99.90
13186;DHT22;6658;53.080;7.428;2022-08-27T08:15:45;21.00;99.90
13186;DHT22;6658;53.080;7.428;2022-08-27T08:18:12;20.70;99.90
13186;DHT22;6658;53.080;7.428;2022-08-27T08:20:38;20.60;99.90
13186;DHT22;6658;53.080;7.428;2022-08-27T08:23:04;20.40;99.90
13186;DHT22;6658;53.080;7.428;2022-08-27T08:25:30;20.20;99.90
13186;DHT22;6658;53.080;7.428;2022-08-27T08:27:56;20.10;99.90
13186;DHT22;6658;53.080;7.428;2022-08-27T08:30:22;20.20;99.90
13186;DHT22;6658;53.080;7.428;2022-08-27T08:32:48;20.80;99.90
13186;DHT22;6658;53.080;7.428;2022-08-27T08:35:14;21.70;99.90
13186;DHT22;6658;53.080;7.428;2022-08-27T08:37:43;22.40;99.90
13186;DHT22;6658;53.080;7.428;2022-08-27T08:40:12;22.20;99.90
13186;DHT22;6658;53.080;7.428;2022-08-27T08:42:43;21.80;99.90
13186;DHT22;6658;53.080;7.428;2022-08-27T08:45:13;21.30;99.90
13186;DHT22;6658;53.080;7.428;2022-08-27T08:48:02;20.90;99.90
13186;DHT22;6658;53.080;7.428;2022-08-27T08:50:43;20.60;99.90
13186;DHT22;6658;53.080;7.428;2022-08-27T08:53:26;20.40;99.90
13186;DHT22;6658;53.080;7.428;2022-08-27T08:56:00;20.30;99.90
13186;DHT22;6658;53.080;7.428;2022-08-27T09:01:15;20.30;99.90
13186;DHT22;6658;53.080;7.428;2022-08-27T09:03:59;20.30;99.90
13186;DHT22;6658;53.080;7.428;2022-08-27T09:06:35;20.30;99.90
13186;DHT22;6658;53.080;7.428;2022-08-27T09:12:00;20.50;99.90
13186;DHT22;6658;53.080;7.428;2022-08-27T09:14:45;20.70;99.90
13186;DHT22;6658;53.080;7.428;2022-08-27T09:17:13;20.80;99.90
13186;DHT22;6658;53.080;7.428;2022-08-27T09:19:39;21.20;99.90
13186;DHT22;6658;53.080;7.428;2022-08-27T09:22:15;21.80;99.90
13186;DHT22;6658;53.080;7.428;2022-08-27T09:24:54;21.80;99.90
13186;DHT22;6658;53.080;7.428;2022-08-27T09:27:24;21.70;99.90
13186;DHT22;6658;53.080;7.428;2022-08-27T09:29:52;21.50;99.90
13186;DHT22;6658;53.080;7.428;2022-08-27T09:32:30;21.60;99.90
13186;DHT22;6658;53.080;7.428;2022-08-27T09:34:58;21.50;99.90
13186;DHT22;6658;53.080;7.428;2022-08-27T09:37:32;21.80;99.90
13186;DHT22;6658;53.080;7.428;2022-08-27T09:40:29;22.70;99.90
13186;DHT22;6658;53.080;7.428;2022-08-27T09:45:50;25.90;99.90
13186;DHT22;6658;53.080;7.428;2022-08-27T09:48:26;26.50;97.00
13186;DHT22;6658;53.080;7.428;2022-08-27T09:50:58;26.50;97.00
13186;DHT22;6658;53.080;7.428;2022-08-27T09:56:01;24.40;99.90
13186;DHT22;6658;53.080;7.428;2022-08-27T09:58:43;23.40;99.90
13186;DHT22;6658;53.080;7.428;2022-08-27T10:01:19;22.80;99.90
13186;DHT22;6658;53.080;7.428;2022-08-27T10:03:45;22.50;99.90
13186;DHT22;6658;53.080;7.428;2022-08-27T10:06:11;22.30;99.90
13186;DHT22;6658;53.080;7.428;2022-08-27T10:08:46;22.00;99.90
13186;DHT22;6658;53.080;7.428;2022-08-27T10:11:29;21.90;99.90
13186;DHT22;6658;53.080;7.428;2022-08-27T10:14:04;21.80;99.90
13186;DHT22;6658;53.080;7.428;2022-08-27T10:16:49;21.60;99.90
13186;DHT22;6658;53.080;7.428;2022-08-27T10:25:03;22.00;99.90
13186;DHT22;6658;53.080;7.428;2022-08-27T10:30:29;22.00;99.90
13186;DHT22;6658;53.080;7.428;2022-08-27T10:33:26;21.80;99.90
13186;DHT22;6658;53.080;7.428;2022-08-27T10:42:42;21.30;99.90
13186;DHT22;6658;53.080;7.428;2022-08-27T10:45:10;21.40;99.90
13186;DHT22;6658;53.080;7.428;2022-08-27T10:50:46;21.50;99.90
13186;DHT22;6658;53.080;7.428;2022-08-27T10:53:35;21.80;99.90
13186;DHT22;6658;53.080;7.428;2022-08-27T10:56:26;21.70;99.90
13186;DHT22;6658;53.080;7.428;2022-08-27T11:04:21;21.80;99.90
13186;DHT22;6658;53.080;7.428;2022-08-27T11:07:21;21.80;99.90
13186;DHT22;6658;53.080;7.428;2022-08-27T11:10:01;22.10;99.90
13186;DHT22;6658;53.080;7.428;2022-08-27T11:12:32;22.60;99.90
13186;DHT22;6658;53.080;7.428;2022-08-27T11:18:26;22.30;99.90
13186;DHT22;6658;53.080;7.428;2022-08-27T11:23:29;22.00;99.90
13186;DHT22;6658;53.080;7.428;2022-08-27T11:26:02;21.80;99.90
13186;DHT22;6658;53.080;7.428;2022-08-27T11:28:42;21.80;99.90
13186;DHT22;6658;53.080;7.428;2022-08-27T11:31:30;21.80;99.90
13186;DHT22;6658;53.080;7.428;2022-08-27T11:34:08;21.70;99.90
13186;DHT22;6658;53.080;7.428;2022-08-27T11:42:44;21.90;99.90
13186;DHT22;6658;53.080;7.428;2022-08-27T11:45:20;22.10;99.90
13186;DHT22;6658;53.080;7.428;2022-08-27T11:47:56;22.20;99.90
13186;DHT22;6658;53.080;7.428;2022-08-27T11:50:23;22.30;99.90
13186;DHT22;6658;53.080;7.428;2022-08-27T11:53:04;22.30;99.90
13186;DHT22;6658;53.080;7.428;2022-08-27T11:55:37;22.20;99.90
13186;DHT22;6658;53.080;7.428;2022-08-27T12:00:46;22.40;99.90
13186;DHT22;6658;53.080;7.428;2022-08-27T12:06:06;22.30;99.90
13186;DHT22;6658;53.080;7.428;2022-08-27T12:08:33;22.30;99.90
13186;DHT22;6658;53.080;7.428;2022-08-27T12:14:37;22.40;99.90
13186;DHT22;6658;53.080;7.428;2022-08-27T12:22:18;22.70;99.90
13186;DHT22;6658;53.080;7.428;2022-08-27T12:24:55;22.60;99.90
13186;DHT22;6658;53.080;7.428;2022-08-27T12:30:06;22.90;99.90
13186;DHT22;6658;53.080;7.428;2022-08-27T12:32:44;22.90;99.90
13186;DHT22;6658;53.080;7.428;2022-08-27T12:35:35;22.80;99.90
13186;DHT22;6658;53.080;7.428;2022-08-27T12:38:18;22.70;99.90
13186;DHT22;6658;53.080;7.428;2022-08-27T12:40:48;22.70;99.90
13186;DHT22;6658;53.080;7.428;2022-08-27T12:43:26;22.80;99.90
13186;DHT22;6658;53.080;7.428;2022-08-27T12:46:14;22.90;99.90
13186;DHT22;6658;53.080;7.428;2022-08-27T12:48:47;23.00;99.90
13186;DHT22;6658;53.080;7.428;2022-08-27T12:56:36;22.50;99.90
13186;DHT22;6658;53.080;7.428;2022-08-27T12:59:38;22.30;99.90
13186;DHT22;6658;53.080;7.428;2022-08-27T13:04:49;22.30;99.90
13186;DHT22;6658;53.080;7.428;2022-08-27T13:07:29;22.50;99.90
13186;DHT22;6658;53.080;7.428;2022-08-27T13:09:55;22.60;99.90
13186;DHT22;6658;53.080;7.428;2022-08-27T13:12:22;22.40;99.90
13186;DHT22;6658;53.080;7.428;2022-08-27T13:14:48;22.40;99.90
13186;DHT22;6658;53.080;7.428;2022-08-27T13:17:18;22.30;99.90
13186;DHT22;6658;53.080;7.428;2022-08-27T13:19:54;22.30;99.90
13186;DHT22;6658;53.080;7.428;2022-08-27T13:22:29;22.50;99.90
13186;DHT22;6658;53.080;7.428;2022-08-27T13:24:57;22.70;99.90
13186;DHT22;6658;53.080;7.428;2022-08-27T13:27:35;22.90;99.90
13186;DHT22;6658;53.080;7.428;2022-08-27T13:30:10;22.90;99.90
13186;DHT22;6658;53.080;7.428;2022-08-27T13:32:37;22.70;99.90
13186;DHT22;6658;53.080;7.428;2022-08-27T13:35:05;22.50;99.90
13186;DHT22;6658;53.080;7.428;2022-08-27T13:37:45;22.20;99.90
13186;DHT22;6658;53.080;7.428;2022-08-27T13:40:34;22.00;99.90
13186;DHT22;6658;53.080;7.428;2022-08-27T13:43:11;21.80;99.90
13186;DHT22;6658;53.080;7.428;2022-08-27T13:45:39;21.70;99.90
13186;DHT22;6658;53.080;7.428;2022-08-27T13:48:05;21.70;99.90
13186;DHT22;6658;53.080;7.428;2022-08-27T13:50:33;21.90;99.90
13186;DHT22;6658;53.080;7.428;2022-08-27T13:53:08;22.10;99.90
13186;DHT22;6658;53.080;7.428;2022-08-27T13:55:54;22.10;99.90
13186;DHT22;6658;53.080;7.428;2022-08-27T13:58:31;21.90;99.90
13186;DHT22;6658;53.080;7.428;2022-08-27T14:01:10;21.50;99.90
13186;DHT22;6658;53.080;7.428;2022-08-27T14:03:47;21.50;99.90
13186;DHT22;6658;53.080;7.428;2022-08-27T14:06:49;21.60;99.90
13186;DHT22;6658;53.080;7.428;2022-08-27T14:09:24;21.90;99.90
13186;DHT22;6658;53.080;7.428;2022-08-27T14:12:05;22.30;99.90
13186;DHT22;6658;53.080;7.428;2022-08-27T14:14:37;22.40;99.90
13186;DHT22;6658;53.080;7.428;2022-08-27T14:17:05;22.20;99.90
13186;DHT22;6658;53.080;7.428;2022-08-27T14:19:33;21.80;99.90
13186;DHT22;6658;53.080;7.428;2022-08-27T14:21:59;21.40;99.90
13186;DHT22;6658;53.080;7.428;2022-08-27T14:24:26;21.20;99.90
13186;DHT22;6658;53.080;7.428;2022-08-27T14:27:00;21.00;99.90
13186;DHT22;6658;53.080;7.428;2022-08-27T14:29:26;21.10;99.90
13186;DHT22;6658;53.080;7.428;2022-08-27T14:31:52;21.30;99.90
13186;DHT22;6658;53.080;7.428;2022-08-27T14:34:18;21.30;99.90
13186;DHT22;6658;53.080;7.428;2022-08-27T14:36:44;21.40;99.90
13186;DHT22;6658;53.080;7.428;2022-08-27T14:39:10;21.50;99.90
13186;DHT22;6658;53.080;7.428;2022-08-27T14:41:36;21.70;99.90
13186;DHT22;6658;53.080;7.428;2022-08-27T14:44:03;21.60;99.90
13186;DHT22;6658;53.080;7.428;2022-08-27T14:46:32;21.50;99.90
13186;DHT22;6658;53.080;7.428;2022-08-27T14:49:08;21.50;99.90
13186;DHT22;6658;53.080;7.428;2022-08-27T14:51:35;21.30;99.90
13186;DHT22;6658;53.080;7.428;2022-08-27T14:54:02;21.20;99.90
13186;DHT22;6658;53.080;7.428;2022-08-27T14:56:28;21.00;99.90
13186;DHT22;6658;53.080;7.428;2022-08-27T14:58:54;20.90;99.90
13186;DHT22;6658;53.080;7.428;2022-08-27T15:01:22;21.00;99.90
13186;DHT22;6658;53.080;7.428;2022-08-27T15:03:49;21.20;99.90
13186;DHT22;6658;53.080;7.428;2022-08-27T15:06:16;21.30;99.90
13186;DHT22;6658;53.080;7.428;2022-08-27T15:08:43;21.30;99.90
13186;DHT22;6658;53.080;7.428;2022-08-27T15:11:23;21.10;99.90
13186;DHT22;6658;53.080;7.428;2022-08-27T15:13:50;20.90;99.90
13186;DHT22;6658;53.080;7.428;2022-08-27T15:16:29;20.70;99.90
13186;DHT22;6658;53.080;7.428;2022-08-27T15:18:55;20.60;99.90
13186;DHT22;6658;53.080;7.428;2022-08-27T15:21:21;20.60;99.90
13186;DHT22;6658;53.080;7.428;2022-08-27T15:23:48;20.60;99.90
13186;DHT22;6658;53.080;7.428;2022-08-27T15:26:14;20.50;99.90
13186;DHT22;6658;53.080;7.428;2022-08-27T15:28:40;20.40;99.90
13186;DHT22;6658;53.080;7.428;2022-08-27T15:31:06;20.40;99.90
13186;DHT22;6658;53.080;7.428;2022-08-27T15:33:32;20.40;99.90
13186;DHT22;6658;53.080;7.428;2022-08-27T15:35:57;20.50;99.90
13186;DHT22;6658;53.080;7.428;2022-08-27T15:38:23;20.40;99.90
13186;DHT22;6658;53.080;7.428;2022-08-27T15:40:49;20.30;99.90
13186;DHT22;6658;53.080;7.428;2022-08-27T15:43:16;20.20;99.90
13186;DHT22;6658;53.080;7.428;2022-08-27T15:45:42;20.20;99.90
13186;DHT22;6658;53.080;7.428;2022-08-27T15:48:07;20.10;99.90
13186;DHT22;6658;53.080;7.428;2022-08-27T15:50:35;20.00;99.90
13186;DHT22;6658;53.080;7.428;2022-08-27T15:53:03;20.00;99.90
13186;DHT22;6658;53.080;7.428;2022-08-27T15:55:32;20.00;99.90
13186;DHT22;6658;53.080;7.428;2022-08-27T15:57:58;20.00;99.90
13186;DHT22;6658;53.080;7.428;2022-08-27T16:00:24;20.00;99.90
13186;DHT22;6658;53.080;7.428;2022-08-27T16:02:50;20.00;99.90
13186;DHT22;6658;53.080;7.428;2022-08-27T16:05:18;20.00;99.90
13186;DHT22;6658;53.080;7.428;2022-08-27T16:07:44;20.00;99.90
13186;DHT22;6658;53.080;7.428;2022-08-27T16:10:12;19.80;99.90
13186;DHT22;6658;53.080;7.428;2022-08-27T16:12:38;19.70;99.90
13186;DHT22;6658;53.080;7.428;2022-08-27T16:15:04;19.60;99.90
13186;DHT22;6658;53.080;7.428;2022-08-27T16:17:30;19.60;99.90
13186;DHT22;6658;53.080;7.428;2022-08-27T16:19:56;19.60;99.90
13186;DHT22;6658;53.080;7.428;2022-08-27T16:22:22;19.60;99.90
13186;DHT22;6658;53.080;7.428;2022-08-27T16:24:48;19.60;99.90
13186;DHT22;6658;53.080;7.428;2022-08-27T16:27:14;19.60;99.90
13186;DHT22;6658;53.080;7.428;2022-08-27T16:29:39;19.70;99.90
13186;DHT22;6658;53.080;7.428;2022-08-27T16:32:15;19.70;99.90
13186;DHT22;6658;53.080;7.428;2022-08-27T16:34:42;19.70;99.90
13186;DHT22;6658;53.080;7.428;2022-08-27T16:37:07;19.70;99.90
13186;DHT22;6658;53.080;7.428;2022-08-27T16:39:34;19.60;99.90
13186;DHT22;6658;53.080;7.428;2022-08-27T16:42:00;19.60;99.90
13186;DHT22;6658;53.080;7.428;2022-08-27T16:44:25;19.60;99.90
13186;DHT22;6658;53.080;7.428;2022-08-27T16:46:52;19.70;99.90
13186;DHT22;6658;53.080;7.428;2022-08-27T16:49:17;19.60;99.90
13186;DHT22;6658;53.080;7.428;2022-08-27T16:52:03;19.50;99.90
13186;DHT22;6658;53.080;7.428;2022-08-27T16:54:30;19.50;99.90
13186;DHT22;6658;53.080;7.428;2022-08-27T16:56:56;19.50;99.90
13186;DHT22;6658;53.080;7.428;2022-08-27T16:59:22;19.40;99.90
13186;DHT22;6658;53.080;7.428;2022-08-27T17:01:50;19.30;99.90
13186;DHT22;6658;53.080;7.428;2022-08-27T17:04:16;19.10;99.90
13186;DHT22;6658;53.080;7.428;2022-08-27T17:06:42;18.90;99.90
13186;DHT22;6658;53.080;7.428;2022-08-27T17:09:11;18.80;99.90
13186;DHT22;6658;53.080;7.428;2022-08-27T17:11:39;18.70;99.90
13186;DHT22;6658;53.080;7.428;2022-08-27T17:14:08;18.70;99.90